sensor_id;sensor_type;location;lat;lon;timestamp;pressure;altitude;pressure_sealevel;temperature;humidity
48800;BME280;34611;47.964;7.982;2023-04-29T00:06:27;96590.03;;;11.73;66.63
48800;BME280;34611;47.964;7.982;2023-04-29T00:13:28;96588.25;;;11.73;66.43
48800;BME280;34611;47.964;7.982;2023-04-29T00:20:28;96578.78;;;11.72;66.44
48800;BME280;34611;47.964;7.982;2023-04-29T00:27:28;96584.84;;;11.73;66.58
48800;BME280;34611;47.964;7.982;2023-04-29T00:34:29;96587.44;;;11.73;66.56
48800;BME280;34611;47.964;7.982;2023-04-29T00:41:29;96586.47;;;11.74;66.46
48800;BME280;34611;47.964;7.982;2023-04-29T00:48:31;96579.47;;;11.74;66.29
48800;BME280;34611;47.964;7.982;2023-04-29T00:55:32;96582.22;;;11.73;66.51
48800;BME280;34611;47.964;7.982;2023-04-29T01:02:32;96585.66;;;11.73;66.40
48800;BME280;34611;47.964;7.982;2023-04-29T01:09:54;96573.44;;;11.74;66.49
48800;BME280;34611;47.964;7.982;2023-04-29T01:17:00;96570.03;;;11.73;66.31
48800;BME280;34611;47.964;7.982;2023-04-29T01:24:05;96569.22;;;11.73;66.37
48800;BME280;34611;47.964;7.982;2023-04-29T01:31:09;96580.31;;;11.75;66.44
48800;BME280;34611;47.964;7.982;2023-04-29T01:38:22;96560.41;;;11.74;66.55
48800;BME280;34611;47.964;7.982;2023-04-29T01:45:25;96564.81;;;11.73;66.40
48800;BME280;34611;47.964;7.982;2023-04-29T01:52:26;96561.22;;;11.74;66.46
48800;BME280;34611;47.964;7.982;2023-04-29T01:59:30;96562.06;;;11.75;66.37
48800;BME280;34611;47.964;7.982;2023-04-29T02:07:08;96559.59;;;11.73;66.45
48800;BME280;34611;47.964;7.982;2023-04-29T02:14:09;96550.00;;;11.74;66.56
48800;BME280;34611;47.964;7.982;2023-04-29T02:21:11;96561.22;;;11.74;66.40
48800;BME280;34611;47.964;7.982;2023-04-29T02:28:12;96563.69;;;11.76;66.36
48800;BME280;34611;47.964;7.982;2023-04-29T02:35:14;96561.22;;;11.74;66.40
48800;BME280;34611;47.964;7.982;2023-04-29T02:42:14;96568.22;;;11.74;66.61
48800;BME280;34611;47.964;7.982;2023-04-29T02:49:14;96570.84;;;11.74;66.22
48800;BME280;34611;47.964;7.982;2023-04-29T02:56:14;96562.06;;;11.75;66.44
48800;BME280;34611;47.964;7.982;2023-04-29T03:03:15;96560.41;;;11.74;66.47
48800;BME280;34611;47.964;7.982;2023-04-29T03:10:16;96557.69;;;11.75;66.43
48800;BME280;34611;47.964;7.982;2023-04-29T03:17:18;96562.06;;;11.75;66.42
48800;BME280;34611;47.964;7.982;2023-04-29T03:24:18;96557.81;;;11.74;66.42
48800;BME280;34611;47.964;7.982;2023-04-29T03:31:18;96546.44;;;11.75;66.91
48800;BME280;34611;47.964;7.982;2023-04-29T03:38:20;96544.66;;;11.75;66.36
48800;BME280;34611;47.964;7.982;2023-04-29T03:45:22;96554.25;;;11.75;66.52
48800;BME280;34611;47.964;7.982;2023-04-29T03:52:22;96550.81;;;11.74;66.42
48800;BME280;34611;47.964;7.982;2023-04-29T03:59:26;96562.06;;;11.75;66.62
48800;BME280;34611;47.964;7.982;2023-04-29T04:06:26;96551.66;;;11.75;66.67
48800;BME280;34611;47.964;7.982;2023-04-29T04:13:30;96553.28;;;11.76;66.61
48800;BME280;34611;47.964;7.982;2023-04-29T04:20:31;96562.88;;;11.75;66.68
48800;BME280;34611;47.964;7.982;2023-04-29T04:27:32;96568.91;;;11.76;66.43
48800;BME280;34611;47.964;7.982;2023-04-29T04:34:36;96570.56;;;11.77;66.66
48800;BME280;34611;47.964;7.982;2023-04-29T04:41:38;96582.91;;;11.75;66.53
48800;BME280;34611;47.964;7.982;2023-04-29T04:48:39;96583.72;;;11.75;66.50
48800;BME280;34611;47.964;7.982;2023-04-29T04:55:40;96599.34;;;11.75;66.84
48800;BME280;34611;47.964;7.982;2023-04-29T05:02:40;96597.41;;;11.78;66.50
48800;BME280;34611;47.964;7.982;2023-04-29T05:09:41;96611.25;;;11.78;66.47
48800;BME280;34611;47.964;7.982;2023-04-29T05:16:41;96614.16;;;11.75;66.60
48800;BME280;34611;47.964;7.982;2023-04-29T05:23:43;96619.38;;;11.75;66.54
48800;BME280;34611;47.964;7.982;2023-04-29T05:30:43;96625.38;;;11.75;66.68
48800;BME280;34611;47.964;7.982;2023-04-29T05:37:44;96627.84;;;11.77;66.58
48800;BME280;34611;47.964;7.982;2023-04-29T05:44:58;96634.00;;;11.76;66.62
48800;BME280;34611;47.964;7.982;2023-04-29T05:51:59;96643.47;;;11.77;66.49
48800;BME280;34611;47.964;7.982;2023-04-29T05:59:04;96652.09;;;11.78;66.55
48800;BME280;34611;47.964;7.982;2023-04-29T06:06:04;96667.88;;;11.76;66.70
48800;BME280;34611;47.964;7.982;2023-04-29T06:13:12;96675.53;;;11.78;66.80
48800;BME280;34611;47.964;7.982;2023-04-29T06:20:13;96683.34;;;11.78;66.79
48800;BME280;34611;47.964;7.982;2023-04-29T06:27:13;96685.28;;;11.75;66.69
48800;BME280;34611;47.964;7.982;2023-04-29T06:34:13;96688.56;;;11.78;66.68
48800;BME280;34611;47.964;7.982;2023-04-29T06:41:31;96695.56;;;11.77;66.81
48800;BME280;34611;47.964;7.982;2023-04-29T06:48:44;96696.38;;;11.78;66.74
48800;BME280;34611;47.964;7.982;2023-04-29T06:55:45;96691.16;;;11.78;66.67
48800;BME280;34611;47.964;7.982;2023-04-29T07:02:45;96693.09;;;11.75;66.67
48800;BME280;34611;47.964;7.982;2023-04-29T07:09:45;96701.59;;;11.78;66.87
48800;BME280;34611;47.964;7.982;2023-04-29T07:16:46;96696.38;;;11.78;66.70
48800;BME280;34611;47.964;7.982;2023-04-29T07:23:47;96714.59;;;11.78;66.68
48800;BME280;34611;47.964;7.982;2023-04-29T07:30:47;96718.03;;;11.78;66.66
48800;BME280;34611;47.964;7.982;2023-04-29T07:37:48;96719.00;;;11.77;66.74
48800;BME280;34611;47.964;7.982;2023-04-29T07:44:48;96721.59;;;11.77;66.64
48800;BME280;34611;47.964;7.982;2023-04-29T07:51:48;96730.09;;;11.79;66.92
48800;BME280;34611;47.964;7.982;2023-04-29T07:58:49;96733.66;;;11.78;66.58
48800;BME280;34611;47.964;7.982;2023-04-29T08:05:49;96738.03;;;11.78;66.78
48800;BME280;34611;47.964;7.982;2023-04-29T08:12:52;96739.56;;;11.90;66.63
48800;BME280;34611;47.964;7.982;2023-04-29T08:19:53;96737.75;;;11.81;66.95
48800;BME280;34611;47.964;7.982;2023-04-29T08:26:53;96725.72;;;11.80;66.88
48800;BME280;34611;47.964;7.982;2023-04-29T08:33:53;96730.91;;;11.80;67.07
48800;BME280;34611;47.964;7.982;2023-04-29T08:40:55;96724.06;;;11.79;67.00
48800;BME280;34611;47.964;7.982;2023-04-29T08:47:55;96725.72;;;11.80;67.01
48800;BME280;34611;47.964;7.982;2023-04-29T08:54:57;96720.50;;;11.80;66.95
48800;BME280;34611;47.964;7.982;2023-04-29T09:01:59;96716.38;;;12.06;67.11
48800;BME280;34611;47.964;7.982;2023-04-29T09:09:00;96716.31;;;12.53;61.55
48800;BME280;34611;47.964;7.982;2023-04-29T09:16:01;96726.75;;;12.53;60.33
48800;BME280;34611;47.964;7.982;2023-04-29T09:23:01;96737.03;;;12.55;59.72
48800;BME280;34611;47.964;7.982;2023-04-29T09:30:05;96740.22;;;12.02;63.55
48800;BME280;34611;47.964;7.982;2023-04-29T09:37:22;96749.69;;;11.93;64.25
48800;BME280;34611;47.964;7.982;2023-04-29T09:44:24;96745.72;;;11.89;64.43
48800;BME280;34611;47.964;7.982;2023-04-29T09:51:24;96749.28;;;11.88;64.77
48800;BME280;34611;47.964;7.982;2023-04-29T09:58:28;96752.00;;;11.86;65.00
48800;BME280;34611;47.964;7.982;2023-04-29T10:05:30;96756.41;;;11.86;65.16
48800;BME280;34611;47.964;7.982;2023-04-29T10:12:30;96754.75;;;11.85;65.18
48800;BME280;34611;47.964;7.982;2023-04-29T10:26:51;96750.53;;;11.84;65.45
48800;BME280;34611;47.964;7.982;2023-04-29T10:33:55;96747.91;;;11.84;65.28
48800;BME280;34611;47.964;7.982;2023-04-29T10:40:57;96740.09;;;11.84;65.54
48800;BME280;34611;47.964;7.982;2023-04-29T10:55:02;96746.25;;;11.83;65.69
48800;BME280;34611;47.964;7.982;2023-04-29T11:02:03;96734.22;;;11.82;65.59
48800;BME280;34611;47.964;7.982;2023-04-29T11:09:08;96728.03;;;11.83;65.44
48800;BME280;34611;47.964;7.982;2023-04-29T11:16:09;96724.59;;;11.82;65.83
48800;BME280;34611;47.964;7.982;2023-04-29T11:23:09;96723.63;;;11.83;65.58
48800;BME280;34611;47.964;7.982;2023-04-29T11:30:09;96730.63;;;11.83;65.61
48800;BME280;34611;47.964;7.982;2023-04-29T11:37:10;96724.13;;;12.26;63.36
48800;BME280;34611;47.964;7.982;2023-04-29T11:44:10;96718.13;;;12.53;59.80
48800;BME280;34611;47.964;7.982;2023-04-29T11:51:11;96719.47;;;12.57;60.26
48800;BME280;34611;47.964;7.982;2023-04-29T11:58:11;96722.44;;;12.62;59.18
48800;BME280;34611;47.964;7.982;2023-04-29T12:05:13;96720.78;;;12.71;58.24
48800;BME280;34611;47.964;7.982;2023-04-29T12:12:14;96711.88;;;12.36;59.67
48800;BME280;34611;47.964;7.982;2023-04-29T12:19:15;96709.63;;;12.04;61.61
48800;BME280;34611;47.964;7.982;2023-04-29T12:26:15;96717.75;;;12.01;62.22
48800;BME280;34611;47.964;7.982;2023-04-29T12:33:21;96718.84;;;11.98;62.50
48800;BME280;34611;47.964;7.982;2023-04-29T12:40:21;96711.09;;;12.26;62.39
48800;BME280;34611;47.964;7.982;2023-04-29T12:47:22;96722.41;;;12.72;62.69
48800;BME280;34611;47.964;7.982;2023-04-29T12:54:23;96713.75;;;12.99;64.92
48800;BME280;34611;47.964;7.982;2023-04-29T13:01:23;96712.63;;;13.29;62.19
48800;BME280;34611;47.964;7.982;2023-04-29T13:08:23;96714.41;;;13.65;58.60
48800;BME280;34611;47.964;7.982;2023-04-29T13:15:24;96711.31;;;13.69;57.56
48800;BME280;34611;47.964;7.982;2023-04-29T13:22:24;96726.25;;;13.23;60.03
48800;BME280;34611;47.964;7.982;2023-04-29T13:29:25;96723.63;;;13.23;58.59
48800;BME280;34611;47.964;7.982;2023-04-29T13:36:25;96715.06;;;13.67;56.33
48800;BME280;34611;47.964;7.982;2023-04-29T13:43:27;96723.88;;;12.84;60.49
48800;BME280;34611;47.964;7.982;2023-04-29T13:50:27;96714.34;;;12.65;61.61
48800;BME280;34611;47.964;7.982;2023-04-29T13:57:27;96720.81;;;12.89;61.25
48800;BME280;34611;47.964;7.982;2023-04-29T14:04:28;96716.88;;;13.21;61.78
48800;BME280;34611;47.964;7.982;2023-04-29T14:11:28;96717.38;;;12.88;62.64
48800;BME280;34611;47.964;7.982;2023-04-29T14:18:28;96720.66;;;12.90;63.30
48800;BME280;34611;47.964;7.982;2023-04-29T14:25:29;96720.09;;;13.14;63.96
48800;BME280;34611;47.964;7.982;2023-04-29T14:32:30;96721.25;;;13.66;61.73
48800;BME280;34611;47.964;7.982;2023-04-29T14:39:30;96728.28;;;13.29;63.78
48800;BME280;34611;47.964;7.982;2023-04-29T14:46:30;96736.59;;;13.15;63.99
48800;BME280;34611;47.964;7.982;2023-04-29T14:53:31;96749.69;;;13.51;65.44
48800;BME280;34611;47.964;7.982;2023-04-29T15:00:31;96749.16;;;13.65;65.75
48800;BME280;34611;47.964;7.982;2023-04-29T15:07:31;96744.66;;;14.20;58.30
48800;BME280;34611;47.964;7.982;2023-04-29T15:14:32;96753.03;;;14.23;56.18
48800;BME280;34611;47.964;7.982;2023-04-29T15:21:33;96761.59;;;12.90;62.35
48800;BME280;34611;47.964;7.982;2023-04-29T15:28:34;96754.00;;;12.69;63.76
48800;BME280;34611;47.964;7.982;2023-04-29T15:35:34;96758.00;;;12.63;64.27
48800;BME280;34611;47.964;7.982;2023-04-29T15:42:35;96764.44;;;12.69;64.46
48800;BME280;34611;47.964;7.982;2023-04-29T15:49:35;96753.50;;;12.55;65.05
48800;BME280;34611;47.964;7.982;2023-04-29T15:56:36;96764.25;;;12.52;64.96
48800;BME280;34611;47.964;7.982;2023-04-29T16:03:36;96764.50;;;12.49;65.17
48800;BME280;34611;47.964;7.982;2023-04-29T16:10:36;96776.84;;;12.47;65.07
48800;BME280;34611;47.964;7.982;2023-04-29T16:17:36;96773.56;;;12.45;65.19
48800;BME280;34611;47.964;7.982;2023-04-29T16:24:37;96791.16;;;12.43;65.08
48800;BME280;34611;47.964;7.982;2023-04-29T16:31:37;96785.25;;;12.41;64.96
48800;BME280;34611;47.964;7.982;2023-04-29T16:38:38;96789.66;;;12.41;65.08
48800;BME280;34611;47.964;7.982;2023-04-29T16:45:38;96804.84;;;12.45;65.05
48800;BME280;34611;47.964;7.982;2023-04-29T16:52:38;96796.66;;;12.40;65.33
48800;BME280;34611;47.964;7.982;2023-04-29T16:59:39;96810.81;;;12.38;65.27
48800;BME280;34611;47.964;7.982;2023-04-29T17:06:39;96810.81;;;12.38;65.25
48800;BME280;34611;47.964;7.982;2023-04-29T17:13:40;96816.97;;;12.37;65.19
48800;BME280;34611;47.964;7.982;2023-04-29T17:20:40;96809.28;;;12.35;65.17
48800;BME280;34611;47.964;7.982;2023-04-29T17:27:42;96819.69;;;12.35;65.18
48800;BME280;34611;47.964;7.982;2023-04-29T17:34:43;96826.84;;;12.33;65.23
48800;BME280;34611;47.964;7.982;2023-04-29T17:41:43;96828.63;;;12.32;65.29
48800;BME280;34611;47.964;7.982;2023-04-29T17:48:44;96837.44;;;12.31;65.27
48800;BME280;34611;47.964;7.982;2023-04-29T17:55:44;96839.19;;;12.31;65.15
48800;BME280;34611;47.964;7.982;2023-04-29T18:02:45;96842.78;;;12.30;65.07
48800;BME280;34611;47.964;7.982;2023-04-29T18:09:45;96848.53;;;12.33;65.18
48800;BME280;34611;47.964;7.982;2023-04-29T18:16:45;96853.19;;;12.30;65.30
48800;BME280;34611;47.964;7.982;2023-04-29T18:23:46;96846.31;;;12.29;65.20
48800;BME280;34611;47.964;7.982;2023-04-29T18:30:46;96844.69;;;12.28;65.15
48800;BME280;34611;47.964;7.982;2023-04-29T18:37:47;96853.47;;;12.27;65.25
48800;BME280;34611;47.964;7.982;2023-04-29T18:44:47;96851.69;;;12.27;65.17
48800;BME280;34611;47.964;7.982;2023-04-29T18:51:49;96857.03;;;12.26;65.08
48800;BME280;34611;47.964;7.982;2023-04-29T18:58:50;96864.03;;;12.25;65.15
48800;BME280;34611;47.964;7.982;2023-04-29T19:05:51;96859.66;;;12.26;65.14
48800;BME280;34611;47.964;7.982;2023-04-29T19:12:51;96876.22;;;12.25;65.13
48800;BME280;34611;47.964;7.982;2023-04-29T19:19:51;96879.81;;;12.24;65.29
48800;BME280;34611;47.964;7.982;2023-04-29T19:26:52;96880.75;;;12.23;65.40
48800;BME280;34611;47.964;7.982;2023-04-29T19:33:54;96888.56;;;12.23;65.11
48800;BME280;34611;47.964;7.982;2023-04-29T19:40:55;96901.59;;;12.23;65.29
48800;BME280;34611;47.964;7.982;2023-04-29T19:47:55;96897.38;;;12.22;65.11
48800;BME280;34611;47.964;7.982;2023-04-29T19:54:57;96902.59;;;12.22;65.05
48800;BME280;34611;47.964;7.982;2023-04-29T20:01:57;96902.59;;;12.22;65.26
48800;BME280;34611;47.964;7.982;2023-04-29T20:08:57;96900.91;;;12.21;65.29
48800;BME280;34611;47.964;7.982;2023-04-29T20:15:57;96907.78;;;12.22;65.27
48800;BME280;34611;47.964;7.982;2023-04-29T20:22:58;96912.19;;;12.21;65.43
48800;BME280;34611;47.964;7.982;2023-04-29T20:29:59;96904.50;;;12.20;65.32
48800;BME280;34611;47.964;7.982;2023-04-29T20:36:59;96917.53;;;12.20;65.18
48800;BME280;34611;47.964;7.982;2023-04-29T20:44:00;96908.91;;;12.19;65.42
48800;BME280;34611;47.964;7.982;2023-04-29T20:51:01;96914.13;;;12.19;65.11
48800;BME280;34611;47.964;7.982;2023-04-29T20:58:01;96911.50;;;12.19;65.28
48800;BME280;34611;47.964;7.982;2023-04-29T21:05:01;96915.06;;;12.18;65.36
48800;BME280;34611;47.964;7.982;2023-04-29T21:12:02;96922.88;;;12.18;65.16
48800;BME280;34611;47.964;7.982;2023-04-29T21:19:04;96936.72;;;12.19;65.17
48800;BME280;34611;47.964;7.982;2023-04-29T21:26:04;96925.63;;;12.17;65.27
48800;BME280;34611;47.964;7.982;2023-04-29T21:33:04;96927.28;;;12.18;65.13
48800;BME280;34611;47.964;7.982;2023-04-29T21:40:05;96935.22;;;12.16;65.25
48800;BME280;34611;47.964;7.982;2023-04-29T21:47:05;96938.66;;;12.17;65.17
48800;BME280;34611;47.964;7.982;2023-04-29T21:54:06;96932.63;;;12.16;65.34
48800;BME280;34611;47.964;7.982;2023-04-29T22:01:07;96929.19;;;12.15;65.46
48800;BME280;34611;47.964;7.982;2023-04-29T22:08:26;96926.59;;;12.15;65.16
48800;BME280;34611;47.964;7.982;2023-04-29T22:15:26;96926.59;;;12.15;65.33
48800;BME280;34611;47.964;7.982;2023-04-29T22:22:27;96923.97;;;12.15;65.20
48800;BME280;34611;47.964;7.982;2023-04-29T22:29:27;96926.72;;;12.14;65.32
48800;BME280;34611;47.964;7.982;2023-04-29T22:36:27;96918.78;;;12.15;65.35
48800;BME280;34611;47.964;7.982;2023-04-29T22:43:27;96935.34;;;12.14;65.34
48800;BME280;34611;47.964;7.982;2023-04-29T22:50:28;96925.91;;;12.13;65.12
48800;BME280;34611;47.964;7.982;2023-04-29T22:57:28;96925.91;;;12.13;65.18
48800;BME280;34611;47.964;7.982;2023-04-29T23:04:28;96925.91;;;12.13;65.43
48800;BME280;34611;47.964;7.982;2023-04-29T23:11:29;96928.50;;;12.13;65.18
48800;BME280;34611;47.964;7.982;2023-04-29T23:18:30;96929.47;;;12.12;65.35
48800;BME280;34611;47.964;7.982;2023-04-29T23:25:30;96945.94;;;12.13;65.40
48800;BME280;34611;47.964;7.982;2023-04-29T23:32:31;96945.94;;;12.13;65.29
48800;BME280;34611;47.964;7.982;2023-04-29T23:39:31;96940.84;;;12.11;65.37
48800;BME280;34611;47.964;7.982;2023-04-29T23:46:32;96938.13;;;12.13;65.23
48800;BME280;34611;47.964;7.982;2023-04-29T23:53:32;96935.63;;;12.11;65.48
